UAE65W LFPG-OMDB
Flight info
| Callsign | UAE65W |
|---|---|
| Flight time | N/A |
| Altitude | 33000 |
| Route | LANVI DCT BEGAR DCT TRA DCT GAMSA DCT BIRGI DCT INGID DCT GOTAR/N0475F350 DCT INVED DCT ARTAT UP975 EZS UL614 OTKEP UM688 RATVO M688 ULDUR/N0482F370 M688 SIDAD P975 SESRU M677 VUTEB |
| Aircraft | B77W/H-SDE1E2E3FGHIJ2J3J4J5M1RWXY/LB1D1 |
Departure
| Time | N/A |
|---|---|
| Airport | Charles de Gaulle International Airport (LFPG) |
Arrival
| Time | 2026-05-05 02:52 |
|---|---|
| Airport | Dubai International Airport (OMDB) |
| Time | Latitude | Longitude | Altitude | Speed | Heading |
|---|---|---|---|---|---|
| 2026-05-04 21:04 | 48.20839 | 6.26931 | 33027 ft | 477 kts | 114° |
| 2026-05-04 21:04 | 48.19790 | 6.31654 | 33018 ft | 477 kts | 114° |
| 2026-05-04 21:05 | 48.17689 | 6.41088 | 33016 ft | 477 kts | 114° |
| 2026-05-04 21:05 | 48.15594 | 6.50452 | 33005 ft | 478 kts | 114° |
| 2026-05-04 21:06 | 48.13469 | 6.59909 | 33011 ft | 480 kts | 114° |
| 2026-05-04 21:06 | 48.11329 | 6.69392 | 33010 ft | 481 kts | 114° |
| 2026-05-04 21:07 | 48.09178 | 6.78882 | 33013 ft | 482 kts | 114° |
| 2026-05-04 21:07 | 48.07027 | 6.88325 | 32997 ft | 483 kts | 114° |
| 2026-05-04 21:08 | 48.04851 | 6.97839 | 33003 ft | 484 kts | 114° |
| 2026-05-04 21:08 | 48.02688 | 7.07253 | 32987 ft | 485 kts | 114° |
| 2026-05-04 21:09 | 48.00493 | 7.16774 | 32995 ft | 484 kts | 114° |
| 2026-05-04 21:09 | 47.98311 | 7.26192 | 32968 ft | 483 kts | 114° |
| 2026-05-04 21:10 | 47.96109 | 7.35649 | 32994 ft | 483 kts | 114° |
| 2026-05-04 21:10 | 47.93899 | 7.45104 | 32998 ft | 483 kts | 114° |
| 2026-05-04 21:11 | 47.91678 | 7.54567 | 32975 ft | 484 kts | 114° |
| 2026-05-04 21:11 | 47.89411 | 7.64001 | 32964 ft | 483 kts | 115° |
| 2026-05-04 21:12 | 47.87032 | 7.73383 | 32982 ft | 484 kts | 115° |
| 2026-05-04 21:12 | 47.84649 | 7.82713 | 32998 ft | 486 kts | 115° |
| 2026-05-04 21:13 | 47.82250 | 7.92143 | 32992 ft | 488 kts | 115° |
| 2026-05-04 21:13 | 47.79875 | 8.01468 | 32982 ft | 489 kts | 115° |
| 2026-05-04 21:14 | 47.77465 | 8.10900 | 32988 ft | 488 kts | 115° |
| 2026-05-04 21:14 | 47.75062 | 8.20259 | 32980 ft | 488 kts | 115° |
| 2026-05-04 21:15 | 47.72637 | 8.29664 | 32990 ft | 488 kts | 115° |
| 2026-05-04 21:15 | 47.70203 | 8.39066 | 32966 ft | 487 kts | 115° |
| 2026-05-04 21:16 | 47.67820 | 8.48463 | 32965 ft | 487 kts | 113° |
| 2026-05-04 21:16 | 47.65686 | 8.57960 | 32988 ft | 491 kts | 111° |
| 2026-05-04 21:17 | 47.64624 | 8.62781 | 33242 ft | 493 kts | 112° |
| 2026-05-04 21:17 | 47.63554 | 8.67597 | 33651 ft | 490 kts | 112° |
| 2026-05-04 21:17 | 47.62478 | 8.72384 | 34034 ft | 489 kts | 112° |
| 2026-05-04 21:17 | 47.61392 | 8.77159 | 34323 ft | 488 kts | 112° |
| 2026-05-04 21:18 | 47.60302 | 8.81917 | 34597 ft | 488 kts | 112° |
| 2026-05-04 21:18 | 47.59209 | 8.86670 | 34852 ft | 487 kts | 112° |
| 2026-05-04 21:18 | 47.57013 | 8.96166 | 34959 ft | 492 kts | 112° |
| 2026-05-04 21:19 | 47.54834 | 9.05568 | 34956 ft | 487 kts | 112° |
| 2026-05-04 21:19 | 47.52638 | 9.15013 | 34964 ft | 484 kts | 112° |
| 2026-05-04 21:20 | 47.50438 | 9.24420 | 34954 ft | 484 kts | 112° |
| 2026-05-04 21:20 | 47.48235 | 9.33808 | 34960 ft | 483 kts | 112° |
| 2026-05-04 21:21 | 47.46043 | 9.43107 | 34949 ft | 482 kts | 112° |
| 2026-05-04 21:21 | 47.43834 | 9.52449 | 34955 ft | 481 kts | 112° |
| 2026-05-04 21:22 | 47.41708 | 9.61824 | 34948 ft | 483 kts | 107° |
| 2026-05-04 21:22 | 47.40607 | 9.71624 | 34962 ft | 486 kts | 95° |
| 2026-05-04 21:23 | 47.40424 | 9.81521 | 34970 ft | 486 kts | 93° |
| 2026-05-04 21:23 | 47.40298 | 9.91501 | 34969 ft | 486 kts | 93° |
| 2026-05-04 21:24 | 47.40136 | 10.01363 | 34969 ft | 486 kts | 94° |
| 2026-05-04 21:24 | 47.39976 | 10.09642 | 34992 ft | 486 kts | 94° |
| 2026-05-04 21:25 | 47.39731 | 10.21230 | 35009 ft | 486 kts | 94° |
| 2026-05-04 21:25 | 47.39512 | 10.31197 | 35015 ft | 486 kts | 94° |
| 2026-05-04 21:26 | 47.39288 | 10.41166 | 35006 ft | 486 kts | 94° |
| 2026-05-04 21:26 | 47.39053 | 10.51129 | 35003 ft | 486 kts | 94° |
| 2026-05-04 21:27 | 47.38811 | 10.61014 | 35012 ft | 485 kts | 94° |
| 2026-05-04 21:27 | 47.38560 | 10.70963 | 34987 ft | 485 kts | 94° |
| 2026-05-04 21:28 | 47.38300 | 10.80916 | 34989 ft | 486 kts | 94° |
| 2026-05-04 21:28 | 47.38078 | 10.89199 | 34954 ft | 486 kts | 94° |
| 2026-05-04 21:29 | 47.37759 | 11.00666 | 34967 ft | 486 kts | 94° |
| 2026-05-04 21:29 | 47.37472 | 11.10631 | 34947 ft | 486 kts | 95° |
| 2026-05-04 21:30 | 47.37177 | 11.20599 | 34944 ft | 486 kts | 95° |
| 2026-05-04 21:30 | 47.36873 | 11.30572 | 34951 ft | 486 kts | 94° |
| 2026-05-04 21:31 | 47.36412 | 11.45429 | 34950 ft | 485 kts | 95° |
| 2026-05-04 21:32 | 47.36142 | 11.53683 | 34957 ft | 485 kts | 95° |
| 2026-05-04 21:32 | 47.35804 | 11.63627 | 34959 ft | 486 kts | 95° |
| 2026-05-04 21:33 | 47.35463 | 11.73598 | 34950 ft | 486 kts | 95° |
| 2026-05-04 21:33 | 47.35117 | 11.83557 | 34945 ft | 487 kts | 95° |
| 2026-05-04 21:34 | 47.34763 | 11.93456 | 34954 ft | 487 kts | 95° |
| 2026-05-04 21:34 | 47.34392 | 12.03311 | 34956 ft | 487 kts | 95° |
| 2026-05-04 21:35 | 47.34005 | 12.13273 | 34942 ft | 487 kts | 95° |
| 2026-05-04 21:35 | 47.33611 | 12.23230 | 34944 ft | 486 kts | 95° |
| 2026-05-04 21:36 | 47.33213 | 12.33104 | 34962 ft | 486 kts | 95° |
| 2026-05-04 21:36 | 47.32803 | 12.43051 | 34961 ft | 486 kts | 95° |
| 2026-05-04 21:37 | 47.32389 | 12.52980 | 34966 ft | 485 kts | 95° |
| 2026-05-04 21:37 | 47.31960 | 12.62920 | 34966 ft | 486 kts | 95° |
| 2026-05-04 21:38 | 47.31528 | 12.72791 | 34966 ft | 486 kts | 95° |
| 2026-05-04 21:38 | 47.31086 | 12.82733 | 34966 ft | 486 kts | 95° |
| 2026-05-04 21:39 | 47.30632 | 12.92680 | 34969 ft | 487 kts | 95° |
| 2026-05-04 21:39 | 47.30176 | 13.02531 | 34967 ft | 487 kts | 95° |
| 2026-05-04 21:40 | 47.29709 | 13.12416 | 34978 ft | 487 kts | 95° |
| 2026-05-04 21:40 | 47.29230 | 13.22373 | 34954 ft | 487 kts | 95° |
| 2026-05-04 21:41 | 47.28741 | 13.32318 | 34970 ft | 486 kts | 95° |
| 2026-05-04 21:41 | 47.28248 | 13.42253 | 34973 ft | 486 kts | 95° |
| 2026-05-04 21:42 | 47.27746 | 13.52175 | 34981 ft | 486 kts | 95° |
| 2026-05-04 21:42 | 47.27235 | 13.62108 | 34987 ft | 487 kts | 95° |
| 2026-05-04 21:43 | 47.26622 | 13.71967 | 34981 ft | 487 kts | 98° |
| 2026-05-04 21:43 | 47.25679 | 13.81847 | 34983 ft | 488 kts | 99° |
| 2026-05-04 21:44 | 47.24679 | 13.91749 | 34984 ft | 490 kts | 99° |
| 2026-05-04 21:44 | 47.23699 | 14.01563 | 34997 ft | 491 kts | 99° |
| 2026-05-04 21:45 | 47.22715 | 14.11524 | 34988 ft | 492 kts | 99° |
| 2026-05-04 21:45 | 47.21727 | 14.21481 | 34978 ft | 492 kts | 99° |
| 2026-05-04 21:46 | 47.20737 | 14.31366 | 34989 ft | 492 kts | 99° |
| 2026-05-04 21:46 | 47.19729 | 14.41315 | 34991 ft | 492 kts | 99° |
| 2026-05-04 21:47 | 47.18713 | 14.51257 | 34997 ft | 491 kts | 99° |
| 2026-05-04 21:47 | 47.17688 | 14.61193 | 35004 ft | 491 kts | 99° |
| 2026-05-04 21:48 | 47.16664 | 14.71046 | 35003 ft | 491 kts | 99° |
| 2026-05-04 21:48 | 47.15625 | 14.80954 | 35011 ft | 491 kts | 99° |
| 2026-05-04 21:49 | 47.14577 | 14.90857 | 35008 ft | 491 kts | 99° |
| 2026-05-04 21:49 | 47.13531 | 15.00655 | 34998 ft | 491 kts | 99° |
| 2026-05-04 21:50 | 47.12475 | 15.10475 | 34991 ft | 490 kts | 99° |
| 2026-05-04 21:50 | 47.11406 | 15.20335 | 34987 ft | 489 kts | 99° |
| 2026-05-04 21:51 | 47.10328 | 15.30183 | 34986 ft | 488 kts | 99° |
| 2026-05-04 21:51 | 47.09243 | 15.40023 | 34982 ft | 488 kts | 99° |
| 2026-05-04 21:52 | 47.08150 | 15.49854 | 34978 ft | 488 kts | 99° |
| 2026-05-04 21:52 | 47.07049 | 15.59675 | 34969 ft | 488 kts | 99° |
| 2026-05-04 21:53 | 47.05948 | 15.69421 | 34972 ft | 488 kts | 99° |
| 2026-05-04 21:53 | 47.04830 | 15.79234 | 34983 ft | 488 kts | 99° |
| 2026-05-04 21:54 | 47.03705 | 15.89040 | 34980 ft | 488 kts | 99° |
| 2026-05-04 21:54 | 47.02570 | 15.98849 | 34992 ft | 488 kts | 99° |
| 2026-05-04 21:55 | 47.01447 | 16.08490 | 34991 ft | 489 kts | 99° |
| 2026-05-04 21:55 | 47.00295 | 16.18307 | 34996 ft | 489 kts | 99° |
| 2026-05-04 21:56 | 46.98879 | 16.28025 | 35007 ft | 489 kts | 104° |
| 2026-05-04 21:56 | 46.97112 | 16.37632 | 35006 ft | 489 kts | 105° |
| 2026-05-04 21:57 | 46.95335 | 16.47174 | 35003 ft | 489 kts | 104° |
| 2026-05-04 21:57 | 46.93559 | 16.56790 | 35008 ft | 489 kts | 104° |
| 2026-05-04 21:58 | 46.91790 | 16.66402 | 35011 ft | 489 kts | 104° |
| 2026-05-04 21:58 | 46.90018 | 16.75999 | 35018 ft | 489 kts | 104° |
| 2026-05-04 21:59 | 46.88250 | 16.85521 | 35018 ft | 488 kts | 104° |
| 2026-05-04 21:59 | 46.86462 | 16.95096 | 35022 ft | 488 kts | 104° |
| 2026-05-04 22:00 | 46.84685 | 17.04561 | 35024 ft | 488 kts | 104° |
| 2026-05-04 22:00 | 46.82884 | 17.14107 | 35025 ft | 488 kts | 104° |
| 2026-05-04 22:01 | 46.81073 | 17.23651 | 35023 ft | 488 kts | 104° |
| 2026-05-04 22:01 | 46.79269 | 17.33119 | 35025 ft | 487 kts | 104° |
| 2026-05-04 22:02 | 46.77447 | 17.42626 | 35029 ft | 486 kts | 104° |
| 2026-05-04 22:02 | 46.75621 | 17.52110 | 35029 ft | 485 kts | 104° |
| 2026-05-04 22:03 | 46.73791 | 17.61569 | 35038 ft | 484 kts | 104° |
| 2026-05-04 22:03 | 46.71968 | 17.70946 | 35044 ft | 484 kts | 105° |
| 2026-05-04 22:04 | 46.70128 | 17.80365 | 35045 ft | 483 kts | 104° |
| 2026-05-04 22:04 | 46.68283 | 17.89762 | 35040 ft | 482 kts | 104° |
| 2026-05-04 22:05 | 46.66430 | 17.99152 | 35047 ft | 482 kts | 104° |
| 2026-05-04 22:05 | 46.64592 | 18.08423 | 35046 ft | 482 kts | 105° |
| 2026-05-04 22:06 | 46.62738 | 18.17732 | 35050 ft | 482 kts | 104° |
| 2026-05-04 22:06 | 46.60864 | 18.27094 | 35048 ft | 482 kts | 105° |
| 2026-05-04 22:07 | 46.58982 | 18.36452 | 35050 ft | 482 kts | 105° |
| 2026-05-04 22:07 | 46.57093 | 18.45804 | 35053 ft | 482 kts | 105° |
| 2026-05-04 22:08 | 46.55209 | 18.55083 | 35052 ft | 482 kts | 104° |
| 2026-05-04 22:08 | 46.53305 | 18.64419 | 35048 ft | 482 kts | 104° |
| 2026-05-04 22:09 | 46.51393 | 18.73748 | 35052 ft | 482 kts | 105° |
| 2026-05-04 22:09 | 46.49476 | 18.83062 | 35051 ft | 481 kts | 105° |
| 2026-05-04 22:10 | 46.47567 | 18.92297 | 35055 ft | 481 kts | 104° |
| 2026-05-04 22:10 | 46.45655 | 19.01498 | 35052 ft | 481 kts | 105° |
| 2026-05-04 22:11 | 46.43715 | 19.10792 | 35053 ft | 481 kts | 105° |
| 2026-05-04 22:11 | 46.41770 | 19.20066 | 35058 ft | 481 kts | 105° |
| 2026-05-04 22:12 | 46.39816 | 19.29343 | 35053 ft | 481 kts | 104° |
| 2026-05-04 22:12 | 46.37868 | 19.38550 | 35071 ft | 481 kts | 104° |
| 2026-05-04 22:13 | 46.35899 | 19.47814 | 35063 ft | 481 kts | 104° |
| 2026-05-04 22:13 | 46.33923 | 19.57068 | 35059 ft | 481 kts | 105° |
| 2026-05-04 22:14 | 46.31938 | 19.66326 | 35066 ft | 482 kts | 104° |
| 2026-05-04 22:14 | 46.29946 | 19.75573 | 35070 ft | 482 kts | 104° |
| 2026-05-04 22:15 | 46.27959 | 19.84753 | 35070 ft | 482 kts | 104° |
| 2026-05-04 22:15 | 46.25950 | 19.93996 | 35074 ft | 482 kts | 104° |
| 2026-05-04 22:16 | 46.23956 | 20.03134 | 35072 ft | 482 kts | 105° |
| 2026-05-04 22:16 | 46.21933 | 20.12361 | 35077 ft | 482 kts | 105° |
| 2026-05-04 22:17 | 46.19917 | 20.21517 | 35077 ft | 482 kts | 105° |
| 2026-05-04 22:17 | 46.17881 | 20.30731 | 35070 ft | 482 kts | 105° |
| 2026-05-04 22:18 | 46.15787 | 20.39915 | 35084 ft | 483 kts | 108° |
| 2026-05-04 22:18 | 46.12919 | 20.48703 | 35088 ft | 485 kts | 114° |
| 2026-05-04 22:19 | 46.09839 | 20.57358 | 35082 ft | 485 kts | 114° |
| 2026-05-04 22:19 | 46.06787 | 20.65959 | 35088 ft | 485 kts | 114° |
| 2026-05-04 22:20 | 46.03736 | 20.74625 | 35096 ft | 485 kts | 114° |
| 2026-05-04 22:20 | 46.00688 | 20.83289 | 35090 ft | 485 kts | 114° |
| 2026-05-04 22:21 | 45.97650 | 20.91903 | 35086 ft | 485 kts | 114° |
| 2026-05-04 22:21 | 45.94649 | 21.00382 | 35100 ft | 484 kts | 114° |
| 2026-05-04 22:22 | 45.91591 | 21.08992 | 35086 ft | 484 kts | 114° |
| 2026-05-04 22:22 | 45.88528 | 21.17585 | 35076 ft | 483 kts | 114° |
| 2026-05-04 22:23 | 45.85463 | 21.26158 | 35077 ft | 482 kts | 114° |
| 2026-05-04 22:23 | 45.82395 | 21.34713 | 35089 ft | 482 kts | 115° |
| 2026-05-04 22:24 | 45.79344 | 21.43193 | 35074 ft | 482 kts | 115° |
| 2026-05-04 22:24 | 45.76264 | 21.51725 | 35077 ft | 482 kts | 115° |
| 2026-05-04 22:25 | 45.73185 | 21.60230 | 35079 ft | 481 kts | 115° |
| 2026-05-04 22:25 | 45.70097 | 21.68730 | 35089 ft | 481 kts | 115° |
| 2026-05-04 22:26 | 45.67023 | 21.77168 | 35083 ft | 482 kts | 115° |
| 2026-05-04 22:26 | 45.63922 | 21.85653 | 35080 ft | 482 kts | 115° |
| 2026-05-04 22:27 | 45.60811 | 21.94135 | 35077 ft | 482 kts | 115° |
| 2026-05-04 22:27 | 45.57730 | 22.02513 | 35086 ft | 482 kts | 115° |
| 2026-05-04 22:28 | 45.54607 | 22.10979 | 35075 ft | 482 kts | 115° |
| 2026-05-04 22:28 | 45.51498 | 22.19379 | 35076 ft | 482 kts | 115° |
| 2026-05-04 22:29 | 45.48365 | 22.27817 | 35080 ft | 481 kts | 115° |
| 2026-05-04 22:29 | 45.45228 | 22.36242 | 35083 ft | 481 kts | 115° |
| 2026-05-04 22:30 | 45.42088 | 22.44648 | 35081 ft | 481 kts | 115° |
| 2026-05-04 22:30 | 45.38966 | 22.52982 | 35071 ft | 480 kts | 115° |
| 2026-05-04 22:31 | 45.35820 | 22.61351 | 35082 ft | 480 kts | 115° |
| 2026-05-04 22:31 | 45.32672 | 22.69706 | 35070 ft | 479 kts | 116° |
| 2026-05-04 22:32 | 45.29522 | 22.78035 | 35072 ft | 478 kts | 116° |
| 2026-05-04 22:32 | 45.26370 | 22.86345 | 35059 ft | 478 kts | 116° |
| 2026-05-04 22:33 | 45.23238 | 22.94578 | 35059 ft | 477 kts | 116° |
| 2026-05-04 22:33 | 45.20112 | 23.02769 | 35051 ft | 476 kts | 116° |
| 2026-05-04 22:34 | 45.16954 | 23.11023 | 35040 ft | 476 kts | 116° |
| 2026-05-04 22:34 | 45.13795 | 23.19255 | 35032 ft | 475 kts | 116° |
| 2026-05-04 22:35 | 45.10654 | 23.27415 | 35029 ft | 475 kts | 116° |
| 2026-05-04 22:35 | 45.07488 | 23.35615 | 35029 ft | 475 kts | 116° |
| 2026-05-04 22:36 | 45.04312 | 23.43815 | 35029 ft | 475 kts | 116° |
| 2026-05-04 22:36 | 45.01132 | 23.52003 | 35031 ft | 475 kts | 116° |
| 2026-05-04 22:37 | 44.97947 | 23.60183 | 35040 ft | 476 kts | 117° |
| 2026-05-04 22:37 | 44.94770 | 23.68314 | 35027 ft | 476 kts | 117° |
| 2026-05-04 22:38 | 44.91563 | 23.76499 | 35023 ft | 477 kts | 118° |
| 2026-05-04 22:38 | 44.88347 | 23.84681 | 35025 ft | 477 kts | 118° |
| 2026-05-04 22:39 | 44.85128 | 23.92848 | 35033 ft | 477 kts | 118° |
| 2026-05-04 22:39 | 44.81955 | 24.00878 | 35031 ft | 477 kts | 118° |
| 2026-05-04 22:40 | 44.78726 | 24.09022 | 35032 ft | 476 kts | 119° |
| 2026-05-04 22:40 | 44.75491 | 24.17159 | 35029 ft | 476 kts | 118° |
| 2026-05-04 22:41 | 44.72272 | 24.25234 | 35026 ft | 477 kts | 119° |
| 2026-05-04 22:41 | 44.69018 | 24.33370 | 35034 ft | 478 kts | 119° |
| 2026-05-04 22:42 | 44.65747 | 24.41525 | 35035 ft | 480 kts | 119° |
| 2026-05-04 22:42 | 44.62463 | 24.49690 | 35036 ft | 480 kts | 119° |
| 2026-05-04 22:43 | 44.59167 | 24.57860 | 35039 ft | 481 kts | 119° |
| 2026-05-04 22:43 | 44.55888 | 24.65964 | 35030 ft | 481 kts | 119° |
| 2026-05-04 22:44 | 44.52579 | 24.74120 | 35040 ft | 481 kts | 120° |
| 2026-05-04 22:44 | 44.49265 | 24.82266 | 35026 ft | 481 kts | 119° |
| 2026-05-04 22:45 | 44.45949 | 24.90392 | 35045 ft | 480 kts | 120° |
| 2026-05-04 22:45 | 44.41034 | 25.02393 | 35043 ft | 480 kts | 120° |
| 2026-05-04 22:46 | 44.37710 | 25.10483 | 35055 ft | 479 kts | 120° |
| 2026-05-04 22:46 | 44.34385 | 25.18549 | 35050 ft | 479 kts | 120° |
| 2026-05-04 22:47 | 44.31062 | 25.26590 | 35035 ft | 478 kts | 120° |
| 2026-05-04 22:47 | 44.27738 | 25.34610 | 35052 ft | 477 kts | 120° |
| 2026-05-04 22:48 | 44.24432 | 25.42561 | 35053 ft | 477 kts | 119° |
| 2026-05-04 22:48 | 44.21102 | 25.50551 | 35063 ft | 476 kts | 120° |
| 2026-05-04 22:49 | 44.17766 | 25.58532 | 35050 ft | 477 kts | 120° |
| 2026-05-04 22:49 | 44.14423 | 25.66508 | 35045 ft | 477 kts | 120° |
| 2026-05-04 22:50 | 44.11092 | 25.74434 | 35043 ft | 478 kts | 119° |
| 2026-05-04 22:50 | 44.07731 | 25.82406 | 35048 ft | 478 kts | 120° |
| 2026-05-04 22:51 | 44.04365 | 25.90371 | 35045 ft | 478 kts | 120° |
| 2026-05-04 22:51 | 44.00996 | 25.98319 | 35058 ft | 477 kts | 119° |
| 2026-05-04 22:52 | 43.97663 | 26.06161 | 35044 ft | 476 kts | 120° |
| 2026-05-04 22:52 | 43.94318 | 26.14011 | 35045 ft | 475 kts | 120° |
| 2026-05-04 22:53 | 43.90958 | 26.21872 | 35042 ft | 473 kts | 120° |
| 2026-05-04 22:53 | 43.87599 | 26.29713 | 35048 ft | 473 kts | 120° |
| 2026-05-04 22:54 | 43.84235 | 26.37540 | 35041 ft | 473 kts | 120° |
| 2026-05-04 22:54 | 43.80890 | 26.45304 | 35046 ft | 473 kts | 120° |
| 2026-05-04 22:55 | 43.77517 | 26.53112 | 35042 ft | 473 kts | 120° |
| 2026-05-04 22:55 | 43.74142 | 26.60903 | 35046 ft | 471 kts | 120° |
| 2026-05-04 22:56 | 43.70776 | 26.68652 | 35039 ft | 469 kts | 120° |
| 2026-05-04 22:56 | 43.67443 | 26.76304 | 35037 ft | 467 kts | 120° |
| 2026-05-04 22:57 | 43.64099 | 26.83965 | 35051 ft | 465 kts | 120° |
| 2026-05-04 22:57 | 43.60759 | 26.91594 | 35042 ft | 464 kts | 120° |
| 2026-05-04 22:58 | 43.57413 | 26.99216 | 35040 ft | 464 kts | 120° |
| 2026-05-04 22:58 | 43.54118 | 27.06703 | 35039 ft | 465 kts | 120° |
| 2026-05-04 22:59 | 43.50760 | 27.14311 | 35049 ft | 465 kts | 119° |
| 2026-05-04 22:59 | 43.47390 | 27.21931 | 35041 ft | 466 kts | 120° |
| 2026-05-04 23:00 | 43.44010 | 27.29551 | 35039 ft | 467 kts | 120° |
| 2026-05-04 23:00 | 43.40643 | 27.37123 | 35034 ft | 467 kts | 120° |
| 2026-05-04 23:01 | 43.37242 | 27.44749 | 35032 ft | 468 kts | 119° |
| 2026-05-04 23:01 | 43.33832 | 27.52379 | 35029 ft | 469 kts | 119° |
| 2026-05-04 23:02 | 43.30410 | 27.60014 | 35039 ft | 470 kts | 119° |
| 2026-05-04 23:02 | 43.27005 | 27.67590 | 35063 ft | 470 kts | 119° |
| 2026-05-04 23:03 | 43.23571 | 27.75212 | 35055 ft | 469 kts | 119° |
| 2026-05-04 23:03 | 43.20136 | 27.82817 | 35047 ft | 469 kts | 119° |
| 2026-05-04 23:04 | 43.16699 | 27.90406 | 35051 ft | 468 kts | 119° |
| 2026-05-04 23:04 | 43.13258 | 27.97983 | 35049 ft | 468 kts | 119° |
| 2026-05-04 23:05 | 43.09872 | 28.05422 | 35044 ft | 468 kts | 119° |
| 2026-05-04 23:05 | 43.06430 | 28.12964 | 35041 ft | 467 kts | 119° |
| 2026-05-04 23:06 | 43.02985 | 28.20494 | 35041 ft | 467 kts | 119° |
| 2026-05-04 23:06 | 42.99534 | 28.28016 | 35048 ft | 468 kts | 118° |
| 2026-05-04 23:07 | 42.96099 | 28.35487 | 35033 ft | 468 kts | 118° |
| 2026-05-04 23:07 | 42.92633 | 28.43004 | 35033 ft | 468 kts | 118° |
| 2026-05-04 23:08 | 42.89160 | 28.50519 | 35044 ft | 468 kts | 118° |
| 2026-05-04 23:08 | 42.85680 | 28.58027 | 35024 ft | 468 kts | 118° |
| 2026-05-04 23:09 | 42.82220 | 28.65475 | 35024 ft | 468 kts | 118° |
| 2026-05-04 23:09 | 42.78730 | 28.72968 | 35029 ft | 468 kts | 118° |
| 2026-05-04 23:10 | 42.75235 | 28.80453 | 35033 ft | 469 kts | 118° |
| 2026-05-04 23:10 | 42.71734 | 28.87933 | 35023 ft | 468 kts | 118° |
| 2026-05-04 23:11 | 42.68257 | 28.95343 | 35015 ft | 468 kts | 118° |
| 2026-05-04 23:11 | 42.64795 | 29.02701 | 35012 ft | 467 kts | 118° |
| 2026-05-04 23:12 | 42.61291 | 29.10132 | 35011 ft | 467 kts | 118° |
| 2026-05-04 23:12 | 42.57784 | 29.17551 | 35013 ft | 467 kts | 118° |
| 2026-05-04 23:13 | 42.54271 | 29.24963 | 35014 ft | 467 kts | 118° |
| 2026-05-04 23:13 | 42.50781 | 29.32308 | 35016 ft | 467 kts | 118° |
| 2026-05-04 23:14 | 42.47259 | 29.39705 | 35005 ft | 467 kts | 118° |
| 2026-05-04 23:14 | 42.43735 | 29.47088 | 35003 ft | 467 kts | 118° |
| 2026-05-04 23:15 | 42.40209 | 29.54458 | 34992 ft | 466 kts | 118° |
| 2026-05-04 23:15 | 42.36851 | 29.61854 | 34988 ft | 462 kts | 112° |
| 2026-05-04 23:16 | 42.34443 | 29.69804 | 34989 ft | 455 kts | 104° |
| 2026-05-04 23:16 | 42.32434 | 29.77908 | 34983 ft | 454 kts | 104° |
| 2026-05-04 23:17 | 42.30410 | 29.85994 | 35001 ft | 454 kts | 104° |
| 2026-05-04 23:17 | 42.28374 | 29.94018 | 34978 ft | 455 kts | 104° |
| 2026-05-04 23:18 | 42.26332 | 30.02002 | 34973 ft | 454 kts | 104° |
| 2026-05-04 23:18 | 42.24263 | 30.10059 | 34962 ft | 454 kts | 104° |
| 2026-05-04 23:19 | 42.22192 | 30.18101 | 34984 ft | 454 kts | 104° |
| 2026-05-04 23:19 | 42.20114 | 30.26145 | 34960 ft | 454 kts | 104° |
| 2026-05-04 23:20 | 42.18049 | 30.34113 | 34947 ft | 453 kts | 104° |
| 2026-05-04 23:20 | 42.15967 | 30.42119 | 34951 ft | 452 kts | 104° |
| 2026-05-04 23:21 | 42.13880 | 30.50118 | 34943 ft | 453 kts | 104° |
| 2026-05-04 23:21 | 42.11787 | 30.58118 | 34937 ft | 453 kts | 104° |
| 2026-05-04 23:22 | 42.09696 | 30.66080 | 34957 ft | 454 kts | 104° |
| 2026-05-04 23:22 | 42.07584 | 30.74097 | 34926 ft | 455 kts | 104° |
| 2026-05-04 23:23 | 42.05463 | 30.82119 | 34933 ft | 455 kts | 104° |
| 2026-05-04 23:23 | 42.03333 | 30.90153 | 34924 ft | 456 kts | 104° |
| 2026-05-04 23:24 | 42.01194 | 30.98197 | 34917 ft | 457 kts | 104° |
| 2026-05-04 23:24 | 41.99082 | 31.06098 | 34913 ft | 458 kts | 104° |
| 2026-05-04 23:25 | 41.96917 | 31.14146 | 34920 ft | 458 kts | 105° |
| 2026-05-04 23:25 | 41.94748 | 31.22186 | 34904 ft | 458 kts | 105° |
| 2026-05-04 23:26 | 41.92576 | 31.30214 | 34903 ft | 457 kts | 105° |
| 2026-05-04 23:26 | 41.90417 | 31.38175 | 34927 ft | 457 kts | 105° |
| 2026-05-04 23:27 | 41.88238 | 31.46184 | 34901 ft | 457 kts | 105° |
| 2026-05-04 23:27 | 41.86055 | 31.54179 | 34904 ft | 456 kts | 105° |
| 2026-05-04 23:28 | 41.83868 | 31.62170 | 34900 ft | 456 kts | 105° |
| 2026-05-04 23:28 | 41.81709 | 31.70100 | 34903 ft | 456 kts | 105° |
| 2026-05-04 23:29 | 41.79550 | 31.78107 | 34900 ft | 457 kts | 105° |
| 2026-05-04 23:29 | 41.77329 | 31.86094 | 34903 ft | 458 kts | 106° |
| 2026-05-04 23:30 | 41.75097 | 31.94082 | 34906 ft | 458 kts | 106° |
| 2026-05-04 23:30 | 41.72900 | 32.01951 | 34908 ft | 459 kts | 106° |
| 2026-05-04 23:31 | 41.70662 | 32.09954 | 34909 ft | 459 kts | 106° |
| 2026-05-04 23:31 | 41.68414 | 32.17952 | 34910 ft | 459 kts | 106° |
| 2026-05-04 23:32 | 41.66159 | 32.25939 | 34934 ft | 459 kts | 106° |
| 2026-05-04 23:32 | 41.63936 | 32.33953 | 34909 ft | 460 kts | 106° |
| 2026-05-04 23:33 | 41.61701 | 32.41900 | 34908 ft | 460 kts | 106° |
| 2026-05-04 23:33 | 41.59439 | 32.49904 | 34906 ft | 460 kts | 106° |
| 2026-05-04 23:34 | 41.57168 | 32.57905 | 34925 ft | 461 kts | 107° |
| 2026-05-04 23:34 | 41.54885 | 32.65911 | 34917 ft | 462 kts | 107° |
| 2026-05-04 23:35 | 41.52595 | 32.73919 | 34916 ft | 462 kts | 107° |
| 2026-05-04 23:35 | 41.50317 | 32.81869 | 34915 ft | 462 kts | 107° |
| 2026-05-04 23:36 | 41.48018 | 32.89875 | 34923 ft | 463 kts | 107° |
| 2026-05-04 23:36 | 41.45699 | 32.97882 | 34919 ft | 463 kts | 108° |
| 2026-05-04 23:37 | 41.42815 | 33.05492 | 34917 ft | 467 kts | 115° |
| 2026-05-04 23:37 | 41.39643 | 33.12983 | 34941 ft | 467 kts | 115° |
| 2026-05-04 23:38 | 41.36484 | 33.20558 | 34917 ft | 469 kts | 115° |
| 2026-05-04 23:38 | 41.33360 | 33.28174 | 34913 ft | 468 kts | 114° |
| 2026-05-04 23:39 | 41.30309 | 33.35835 | 34897 ft | 469 kts | 114° |
| 2026-05-04 23:39 | 41.27269 | 33.43448 | 34900 ft | 469 kts | 115° |
| 2026-05-04 23:40 | 41.24230 | 33.51131 | 34893 ft | 470 kts | 115° |
| 2026-05-04 23:40 | 41.21190 | 33.58815 | 34889 ft | 470 kts | 115° |
| 2026-05-04 23:41 | 41.18141 | 33.66492 | 34888 ft | 470 kts | 115° |
| 2026-05-04 23:41 | 41.15104 | 33.74112 | 34871 ft | 470 kts | 115° |
| 2026-05-04 23:42 | 41.12039 | 33.81777 | 34859 ft | 471 kts | 115° |
| 2026-05-04 23:42 | 41.08970 | 33.89436 | 34867 ft | 470 kts | 116° |
| 2026-05-04 23:43 | 41.05893 | 33.97096 | 34848 ft | 471 kts | 116° |
| 2026-05-04 23:43 | 41.02866 | 34.04611 | 34840 ft | 471 kts | 116° |
| 2026-05-04 23:44 | 40.99777 | 34.12260 | 34826 ft | 471 kts | 116° |
| 2026-05-04 23:44 | 40.96679 | 34.19913 | 34832 ft | 472 kts | 117° |
| 2026-05-04 23:45 | 40.93572 | 34.27568 | 34812 ft | 472 kts | 117° |
| 2026-05-04 23:45 | 40.90480 | 34.35166 | 34802 ft | 473 kts | 117° |
| 2026-05-04 23:46 | 40.87360 | 34.42813 | 34805 ft | 473 kts | 117° |
| 2026-05-04 23:46 | 40.84235 | 34.50455 | 34802 ft | 473 kts | 117° |
| 2026-05-04 23:47 | 40.81105 | 34.58089 | 34797 ft | 473 kts | 117° |
| 2026-05-04 23:47 | 40.77967 | 34.65726 | 34799 ft | 473 kts | 117° |
| 2026-05-04 23:48 | 40.74842 | 34.73312 | 34784 ft | 474 kts | 117° |
| 2026-05-04 23:48 | 40.71632 | 34.80899 | 34781 ft | 474 kts | 118° |
| 2026-05-04 23:49 | 40.68360 | 34.88449 | 34797 ft | 474 kts | 118° |
| 2026-05-04 23:49 | 40.65085 | 34.95999 | 34781 ft | 475 kts | 119° |
| 2026-05-04 23:50 | 40.61872 | 35.03415 | 34795 ft | 475 kts | 119° |
| 2026-05-04 23:50 | 40.58595 | 35.10975 | 34778 ft | 476 kts | 119° |
| 2026-05-04 23:51 | 40.55310 | 35.18534 | 34780 ft | 477 kts | 119° |
| 2026-05-04 23:51 | 40.52013 | 35.26103 | 34796 ft | 477 kts | 120° |
| 2026-05-04 23:52 | 40.48732 | 35.33614 | 34780 ft | 477 kts | 120° |
| 2026-05-04 23:52 | 40.45420 | 35.41176 | 34776 ft | 478 kts | 120° |
| 2026-05-04 23:53 | 40.42102 | 35.48736 | 34789 ft | 477 kts | 120° |
| 2026-05-04 23:53 | 40.38783 | 35.56280 | 34773 ft | 477 kts | 120° |
| 2026-05-04 23:54 | 40.35483 | 35.63760 | 34786 ft | 477 kts | 120° |
| 2026-05-04 23:54 | 40.32159 | 35.71278 | 34782 ft | 477 kts | 121° |
| 2026-05-04 23:55 | 40.28830 | 35.78787 | 34789 ft | 477 kts | 121° |
| 2026-05-04 23:56 | 40.23826 | 35.90040 | 34811 ft | 477 kts | 121° |
| 2026-05-04 23:56 | 40.20505 | 35.97489 | 34814 ft | 477 kts | 121° |
| 2026-05-04 23:57 | 40.17194 | 36.04893 | 34824 ft | 478 kts | 121° |
| 2026-05-04 23:57 | 40.13836 | 36.12386 | 34831 ft | 478 kts | 121° |
| 2026-05-04 23:58 | 40.10473 | 36.19873 | 34833 ft | 478 kts | 121° |
| 2026-05-04 23:58 | 40.07124 | 36.27309 | 34816 ft | 478 kts | 122° |
| 2026-05-04 23:59 | 40.03749 | 36.34786 | 34814 ft | 478 kts | 122° |
| 2026-05-04 23:59 | 40.00371 | 36.42253 | 34811 ft | 478 kts | 122° |
| 2026-05-05 00:00 | 39.96990 | 36.49707 | 34811 ft | 478 kts | 122° |
| 2026-05-05 00:00 | 39.93628 | 36.57101 | 34831 ft | 478 kts | 122° |
| 2026-05-05 00:01 | 39.90233 | 36.64551 | 34824 ft | 478 kts | 122° |
| 2026-05-05 00:01 | 39.86830 | 36.72001 | 34843 ft | 479 kts | 122° |
| 2026-05-05 00:02 | 39.83360 | 36.79402 | 34859 ft | 479 kts | 126° |
| 2026-05-05 00:02 | 39.79139 | 36.85990 | 34852 ft | 478 kts | 134° |
| 2026-05-05 00:03 | 39.74669 | 36.92398 | 34860 ft | 479 kts | 134° |
| 2026-05-05 00:03 | 39.70206 | 36.98832 | 34850 ft | 480 kts | 134° |
| 2026-05-05 00:04 | 39.65815 | 37.05203 | 34838 ft | 480 kts | 134° |
| 2026-05-05 00:04 | 39.61390 | 37.11630 | 34820 ft | 481 kts | 134° |
| 2026-05-05 00:05 | 39.56937 | 37.18088 | 34808 ft | 480 kts | 134° |
| 2026-05-05 00:05 | 39.52481 | 37.24533 | 34798 ft | 480 kts | 134° |
| 2026-05-05 00:06 | 39.48032 | 37.30955 | 34802 ft | 478 kts | 134° |
| 2026-05-05 00:06 | 39.43588 | 37.37355 | 34804 ft | 478 kts | 134° |
| 2026-05-05 00:07 | 39.39177 | 37.43693 | 34793 ft | 477 kts | 135° |
| 2026-05-05 00:07 | 39.34733 | 37.50066 | 34810 ft | 477 kts | 135° |
| 2026-05-05 00:08 | 39.30280 | 37.56438 | 34814 ft | 478 kts | 134° |
| 2026-05-05 00:08 | 39.25817 | 37.62812 | 34818 ft | 479 kts | 135° |
| 2026-05-05 00:09 | 39.21374 | 37.69145 | 34819 ft | 480 kts | 135° |
| 2026-05-05 00:09 | 39.16890 | 37.75523 | 34831 ft | 480 kts | 135° |
| 2026-05-05 00:10 | 39.12396 | 37.81904 | 34815 ft | 481 kts | 135° |
| 2026-05-05 00:10 | 39.08658 | 37.87199 | 34831 ft | 481 kts | 135° |
| 2026-05-05 00:11 | 39.03424 | 37.94602 | 34846 ft | 481 kts | 136° |
| 2026-05-05 00:11 | 38.98958 | 38.00902 | 34835 ft | 482 kts | 135° |
| 2026-05-05 00:12 | 38.95199 | 38.06194 | 34837 ft | 482 kts | 135° |
| 2026-05-05 00:12 | 38.90669 | 38.12562 | 34841 ft | 483 kts | 135° |
| 2026-05-05 00:13 | 38.85399 | 38.19954 | 34830 ft | 483 kts | 136° |
| 2026-05-05 00:13 | 38.80854 | 38.26313 | 34846 ft | 484 kts | 136° |
| 2026-05-05 00:14 | 38.77072 | 38.31596 | 34846 ft | 484 kts | 136° |
| 2026-05-05 00:14 | 38.72512 | 38.37954 | 34828 ft | 485 kts | 136° |
| 2026-05-05 00:15 | 38.67209 | 38.45332 | 34841 ft | 484 kts | 136° |
| 2026-05-05 00:15 | 38.63413 | 38.50603 | 34851 ft | 484 kts | 136° |
| 2026-05-05 00:16 | 38.58845 | 38.56934 | 34839 ft | 485 kts | 136° |
| 2026-05-05 00:16 | 38.54267 | 38.63263 | 34860 ft | 485 kts | 137° |
| 2026-05-05 00:17 | 38.49685 | 38.69590 | 34869 ft | 485 kts | 137° |
| 2026-05-05 00:17 | 38.45096 | 38.75911 | 34877 ft | 485 kts | 137° |
| 2026-05-05 00:18 | 38.40543 | 38.82170 | 34883 ft | 485 kts | 137° |
| 2026-05-05 00:18 | 38.35955 | 38.88463 | 34899 ft | 484 kts | 137° |
| 2026-05-05 00:19 | 38.31372 | 38.94738 | 34915 ft | 484 kts | 137° |
| 2026-05-05 00:19 | 38.26819 | 39.00960 | 34908 ft | 485 kts | 137° |
| 2026-05-05 00:20 | 38.22249 | 39.07192 | 34891 ft | 485 kts | 137° |
| 2026-05-05 00:20 | 38.17640 | 39.13465 | 34919 ft | 486 kts | 137° |
| 2026-05-05 00:21 | 38.13013 | 39.19749 | 34908 ft | 488 kts | 137° |
| 2026-05-05 00:21 | 38.08373 | 39.26039 | 34916 ft | 489 kts | 138° |
| 2026-05-05 00:22 | 38.03712 | 39.32345 | 34917 ft | 491 kts | 138° |
| 2026-05-05 00:22 | 37.99072 | 39.38611 | 34925 ft | 491 kts | 138° |
| 2026-05-05 00:23 | 37.94388 | 39.44925 | 34921 ft | 492 kts | 138° |
| 2026-05-05 00:23 | 37.89701 | 39.51230 | 34922 ft | 491 kts | 138° |
| 2026-05-05 00:24 | 37.85017 | 39.57516 | 34920 ft | 491 kts | 139° |
| 2026-05-05 00:24 | 37.80370 | 39.63742 | 34914 ft | 489 kts | 139° |
| 2026-05-05 00:25 | 37.75700 | 39.69986 | 34926 ft | 488 kts | 139° |
| 2026-05-05 00:25 | 37.71028 | 39.76219 | 34908 ft | 488 kts | 139° |
| 2026-05-05 00:26 | 37.66356 | 39.82441 | 34915 ft | 488 kts | 139° |
| 2026-05-05 00:26 | 37.61678 | 39.88658 | 34917 ft | 488 kts | 140° |
| 2026-05-05 00:27 | 37.57030 | 39.94824 | 34918 ft | 488 kts | 140° |
| 2026-05-05 00:27 | 37.52398 | 40.00959 | 34928 ft | 487 kts | 140° |
| 2026-05-05 00:28 | 37.47724 | 40.07133 | 34929 ft | 487 kts | 140° |
| 2026-05-05 00:28 | 37.43050 | 40.13297 | 34923 ft | 486 kts | 141° |
| 2026-05-05 00:29 | 37.38404 | 40.19413 | 34927 ft | 487 kts | 141° |
| 2026-05-05 00:29 | 37.33722 | 40.25565 | 34875 ft | 487 kts | 142° |
| 2026-05-05 00:30 | 37.29035 | 40.31714 | 34912 ft | 487 kts | 142° |
| 2026-05-05 00:30 | 37.24338 | 40.37857 | 34909 ft | 488 kts | 142° |
| 2026-05-05 00:31 | 37.19632 | 40.44003 | 34915 ft | 488 kts | 142° |
| 2026-05-05 00:31 | 37.14954 | 40.50105 | 34895 ft | 488 kts | 143° |
| 2026-05-05 00:32 | 37.10246 | 40.56232 | 34906 ft | 488 kts | 143° |
| 2026-05-05 00:32 | 37.05533 | 40.62352 | 34924 ft | 488 kts | 143° |
| 2026-05-05 00:33 | 37.00817 | 40.68463 | 34905 ft | 488 kts | 143° |
| 2026-05-05 00:33 | 36.96102 | 40.74564 | 34907 ft | 488 kts | 143° |
| 2026-05-05 00:34 | 36.91413 | 40.80621 | 34906 ft | 488 kts | 143° |
| 2026-05-05 00:34 | 36.86694 | 40.86703 | 34909 ft | 487 kts | 143° |
| 2026-05-05 00:35 | 36.81976 | 40.92774 | 34889 ft | 487 kts | 143° |
| 2026-05-05 00:35 | 36.77259 | 40.98831 | 34898 ft | 487 kts | 143° |
| 2026-05-05 00:36 | 36.72616 | 41.04780 | 34898 ft | 486 kts | 143° |
| 2026-05-05 00:36 | 36.67895 | 41.10818 | 34899 ft | 486 kts | 143° |
| 2026-05-05 00:37 | 36.63174 | 41.16847 | 34891 ft | 486 kts | 144° |
| 2026-05-05 00:37 | 36.58451 | 41.22867 | 34897 ft | 486 kts | 144° |
| 2026-05-05 00:38 | 36.53755 | 41.28838 | 34896 ft | 486 kts | 144° |
| 2026-05-05 00:38 | 36.49021 | 41.34849 | 34873 ft | 487 kts | 144° |
| 2026-05-05 00:39 | 36.44278 | 41.40860 | 34900 ft | 488 kts | 145° |
| 2026-05-05 00:39 | 36.39520 | 41.46880 | 34903 ft | 489 kts | 145° |
| 2026-05-05 00:40 | 36.34788 | 41.52858 | 34911 ft | 489 kts | 145° |
| 2026-05-05 00:40 | 36.30010 | 41.58881 | 34862 ft | 489 kts | 145° |
| 2026-05-05 00:41 | 36.25254 | 41.64866 | 34891 ft | 487 kts | 145° |
| 2026-05-05 00:41 | 36.20510 | 41.70825 | 34899 ft | 485 kts | 145° |
| 2026-05-05 00:42 | 36.15809 | 41.76718 | 34873 ft | 483 kts | 146° |
| 2026-05-05 00:42 | 36.11099 | 41.82613 | 34892 ft | 481 kts | 146° |
| 2026-05-05 00:43 | 36.06395 | 41.88484 | 34895 ft | 481 kts | 146° |
| 2026-05-05 00:43 | 36.01680 | 41.94359 | 34896 ft | 481 kts | 146° |
| 2026-05-05 00:44 | 35.97003 | 42.00178 | 34873 ft | 482 kts | 146° |
| 2026-05-05 00:44 | 35.92312 | 42.06006 | 34891 ft | 482 kts | 146° |
| 2026-05-05 00:45 | 35.87577 | 42.11876 | 34895 ft | 483 kts | 146° |
| 2026-05-05 00:45 | 35.82832 | 42.17748 | 34898 ft | 484 kts | 146° |
| 2026-05-05 00:46 | 35.78082 | 42.23619 | 34878 ft | 483 kts | 146° |
| 2026-05-05 00:46 | 35.73359 | 42.29445 | 34898 ft | 484 kts | 146° |
| 2026-05-05 00:47 | 35.68596 | 42.35307 | 34896 ft | 485 kts | 146° |
| 2026-05-05 00:47 | 35.63818 | 42.41177 | 34853 ft | 486 kts | 146° |
| 2026-05-05 00:48 | 35.59037 | 42.47044 | 34892 ft | 485 kts | 146° |
| 2026-05-05 00:48 | 35.54256 | 42.52899 | 34897 ft | 486 kts | 146° |
| 2026-05-05 00:49 | 35.49497 | 42.58716 | 34895 ft | 486 kts | 146° |
| 2026-05-05 00:49 | 35.44715 | 42.64553 | 34880 ft | 484 kts | 146° |
| 2026-05-05 00:50 | 35.39944 | 42.70366 | 34892 ft | 483 kts | 146° |
| 2026-05-05 00:50 | 35.35181 | 42.76158 | 34897 ft | 482 kts | 146° |
| 2026-05-05 00:51 | 35.30456 | 42.81892 | 34900 ft | 481 kts | 146° |
| 2026-05-05 00:51 | 35.25698 | 42.87655 | 34898 ft | 481 kts | 146° |
| 2026-05-05 00:52 | 35.20936 | 42.93413 | 34903 ft | 481 kts | 146° |
| 2026-05-05 00:52 | 35.16168 | 42.99169 | 34905 ft | 482 kts | 146° |
| 2026-05-05 00:53 | 35.11443 | 43.04864 | 34875 ft | 482 kts | 146° |
| 2026-05-05 00:53 | 35.06697 | 43.10574 | 34893 ft | 483 kts | 146° |
| 2026-05-05 00:54 | 35.01895 | 43.16339 | 34914 ft | 485 kts | 146° |
| 2026-05-05 00:54 | 34.97079 | 43.22114 | 34871 ft | 486 kts | 146° |
| 2026-05-05 00:55 | 34.92256 | 43.27890 | 34896 ft | 486 kts | 146° |
| 2026-05-05 00:55 | 34.87452 | 43.33629 | 34900 ft | 487 kts | 146° |
| 2026-05-05 00:56 | 34.82605 | 43.39410 | 34910 ft | 489 kts | 146° |
| 2026-05-05 00:56 | 34.77743 | 43.45200 | 34886 ft | 488 kts | 146° |
| 2026-05-05 00:57 | 34.72897 | 43.50965 | 34901 ft | 488 kts | 146° |
| 2026-05-05 00:57 | 34.70463 | 43.53852 | 35077 ft | 489 kts | 146° |
| 2026-05-05 00:57 | 34.68061 | 43.56701 | 35422 ft | 487 kts | 146° |
| 2026-05-05 00:57 | 34.65641 | 43.59571 | 35808 ft | 485 kts | 146° |
| 2026-05-05 00:58 | 34.63234 | 43.62425 | 36173 ft | 483 kts | 146° |
| 2026-05-05 00:58 | 34.60834 | 43.65267 | 36482 ft | 481 kts | 146° |
| 2026-05-05 00:58 | 34.58436 | 43.68100 | 36772 ft | 481 kts | 146° |
| 2026-05-05 00:59 | 34.53603 | 43.73795 | 36874 ft | 486 kts | 146° |
| 2026-05-05 00:59 | 34.48769 | 43.79494 | 36892 ft | 482 kts | 146° |
| 2026-05-05 01:00 | 34.44019 | 43.85093 | 36890 ft | 478 kts | 147° |
| 2026-05-05 01:00 | 34.39243 | 43.90698 | 36908 ft | 478 kts | 147° |
| 2026-05-05 01:01 | 34.34460 | 43.96302 | 36904 ft | 479 kts | 147° |
| 2026-05-05 01:01 | 34.29709 | 44.01860 | 36904 ft | 480 kts | 147° |
| 2026-05-05 01:02 | 34.24927 | 44.07447 | 36898 ft | 482 kts | 147° |
| 2026-05-05 01:02 | 34.20096 | 44.13082 | 36905 ft | 484 kts | 147° |
| 2026-05-05 01:03 | 34.15238 | 44.18741 | 36897 ft | 486 kts | 147° |
| 2026-05-05 01:03 | 34.10358 | 44.24415 | 36874 ft | 488 kts | 147° |
| 2026-05-05 01:04 | 34.05448 | 44.30109 | 36900 ft | 490 kts | 147° |
| 2026-05-05 01:04 | 33.97861 | 44.38199 | 36893 ft | 488 kts | 150° |
| 2026-05-05 01:05 | 33.92718 | 44.43532 | 36869 ft | 488 kts | 150° |
| 2026-05-05 01:05 | 33.87599 | 44.48895 | 36884 ft | 487 kts | 150° |
| 2026-05-05 01:06 | 33.82503 | 44.54263 | 36886 ft | 486 kts | 149° |
| 2026-05-05 01:06 | 33.77466 | 44.59571 | 36885 ft | 484 kts | 149° |
| 2026-05-05 01:07 | 33.72398 | 44.64899 | 36884 ft | 483 kts | 150° |
| 2026-05-05 01:07 | 33.67342 | 44.70202 | 36884 ft | 482 kts | 150° |
| 2026-05-05 01:08 | 33.62287 | 44.75494 | 36889 ft | 482 kts | 150° |
| 2026-05-05 01:08 | 33.57258 | 44.80749 | 36896 ft | 483 kts | 150° |
| 2026-05-05 01:09 | 33.52187 | 44.86042 | 36897 ft | 484 kts | 150° |
| 2026-05-05 01:09 | 33.47106 | 44.91337 | 36896 ft | 484 kts | 150° |
| 2026-05-05 01:10 | 33.42022 | 44.96626 | 36908 ft | 484 kts | 150° |
| 2026-05-05 01:10 | 33.37011 | 45.01832 | 36899 ft | 485 kts | 150° |
| 2026-05-05 01:11 | 33.31908 | 45.07124 | 36902 ft | 486 kts | 150° |
| 2026-05-05 01:11 | 33.26801 | 45.12411 | 36875 ft | 486 kts | 150° |
| 2026-05-05 01:12 | 33.21690 | 45.17696 | 36884 ft | 486 kts | 150° |
| 2026-05-05 01:12 | 33.16574 | 45.22977 | 36898 ft | 486 kts | 150° |
| 2026-05-05 01:13 | 33.11488 | 45.28218 | 36880 ft | 486 kts | 150° |
| 2026-05-05 01:13 | 33.06361 | 45.33492 | 36884 ft | 487 kts | 150° |
| 2026-05-05 01:14 | 33.01225 | 45.38767 | 36860 ft | 488 kts | 150° |
| 2026-05-05 01:14 | 32.96086 | 45.44037 | 36879 ft | 488 kts | 150° |
| 2026-05-05 01:15 | 32.90964 | 45.49281 | 36868 ft | 489 kts | 150° |
| 2026-05-05 01:15 | 32.85796 | 45.54564 | 36870 ft | 490 kts | 150° |
| 2026-05-05 01:16 | 32.80617 | 45.59850 | 36864 ft | 491 kts | 150° |
| 2026-05-05 01:16 | 32.75426 | 45.65141 | 36841 ft | 492 kts | 150° |
| 2026-05-05 01:17 | 32.70263 | 45.70394 | 36857 ft | 492 kts | 150° |
| 2026-05-05 01:17 | 32.65058 | 45.75682 | 36864 ft | 493 kts | 150° |
| 2026-05-05 01:18 | 32.59846 | 45.80967 | 36847 ft | 493 kts | 150° |
| 2026-05-05 01:18 | 32.54631 | 45.86248 | 36857 ft | 493 kts | 150° |
| 2026-05-05 01:19 | 32.49441 | 45.91495 | 36854 ft | 494 kts | 150° |
| 2026-05-05 01:19 | 32.44209 | 45.96777 | 36847 ft | 494 kts | 150° |
| 2026-05-05 01:20 | 32.39019 | 46.02008 | 36849 ft | 495 kts | 150° |
| 2026-05-05 01:20 | 32.33776 | 46.07282 | 36836 ft | 495 kts | 150° |
| 2026-05-05 01:21 | 32.28561 | 46.12522 | 36846 ft | 495 kts | 150° |
| 2026-05-05 01:21 | 32.23306 | 46.17793 | 36842 ft | 496 kts | 150° |
| 2026-05-05 01:22 | 32.18044 | 46.23063 | 36840 ft | 496 kts | 150° |
| 2026-05-05 01:22 | 32.12773 | 46.28333 | 36839 ft | 497 kts | 150° |
| 2026-05-05 01:23 | 32.07501 | 46.33597 | 36803 ft | 497 kts | 150° |
| 2026-05-05 01:23 | 32.02266 | 46.38816 | 36812 ft | 496 kts | 150° |
| 2026-05-05 01:24 | 31.96992 | 46.44065 | 36829 ft | 496 kts | 150° |
| 2026-05-05 01:24 | 31.91714 | 46.49308 | 36813 ft | 497 kts | 150° |
| 2026-05-05 01:25 | 31.86463 | 46.54518 | 36824 ft | 497 kts | 150° |
| 2026-05-05 01:25 | 31.81175 | 46.59757 | 36822 ft | 497 kts | 150° |
| 2026-05-05 01:26 | 31.75883 | 46.64991 | 36810 ft | 497 kts | 150° |
| 2026-05-05 01:26 | 31.70587 | 46.70222 | 36815 ft | 497 kts | 150° |
| 2026-05-05 01:27 | 31.65324 | 46.75411 | 36774 ft | 497 kts | 150° |
| 2026-05-05 01:27 | 31.60026 | 46.80628 | 36800 ft | 497 kts | 150° |
| 2026-05-05 01:28 | 31.54728 | 46.85835 | 36807 ft | 497 kts | 150° |
| 2026-05-05 01:28 | 31.49418 | 46.91046 | 36786 ft | 497 kts | 150° |
| 2026-05-05 01:29 | 31.44150 | 46.96210 | 36793 ft | 498 kts | 150° |
| 2026-05-05 01:29 | 31.38882 | 47.01364 | 36792 ft | 498 kts | 150° |
| 2026-05-05 01:30 | 31.33560 | 47.06564 | 36782 ft | 498 kts | 150° |
| 2026-05-05 01:30 | 31.28234 | 47.11759 | 36778 ft | 499 kts | 150° |
| 2026-05-05 01:31 | 31.22937 | 47.16919 | 36796 ft | 499 kts | 150° |
| 2026-05-05 01:31 | 31.17604 | 47.22106 | 36774 ft | 499 kts | 150° |
| 2026-05-05 01:32 | 31.12273 | 47.27284 | 36782 ft | 498 kts | 150° |
| 2026-05-05 01:32 | 31.06941 | 47.32454 | 36760 ft | 498 kts | 150° |
| 2026-05-05 01:33 | 31.01651 | 47.37576 | 36772 ft | 498 kts | 150° |
| 2026-05-05 01:33 | 30.96330 | 47.42721 | 36778 ft | 497 kts | 150° |
| 2026-05-05 01:34 | 30.91005 | 47.47860 | 36762 ft | 496 kts | 150° |
| 2026-05-05 01:34 | 30.85689 | 47.52985 | 36772 ft | 496 kts | 150° |
| 2026-05-05 01:35 | 30.80375 | 47.58099 | 36772 ft | 496 kts | 150° |
| 2026-05-05 01:35 | 30.75059 | 47.63207 | 36776 ft | 496 kts | 150° |
| 2026-05-05 01:36 | 30.69774 | 47.68278 | 36776 ft | 496 kts | 150° |
| 2026-05-05 01:36 | 30.64453 | 47.73377 | 36774 ft | 496 kts | 150° |
| 2026-05-05 01:37 | 30.59135 | 47.78466 | 36773 ft | 495 kts | 150° |
| 2026-05-05 01:37 | 30.53817 | 47.83546 | 36776 ft | 495 kts | 150° |
| 2026-05-05 01:38 | 30.48531 | 47.88588 | 36758 ft | 496 kts | 150° |
| 2026-05-05 01:38 | 30.43207 | 47.93660 | 36745 ft | 495 kts | 150° |
| 2026-05-05 01:39 | 30.37887 | 47.98720 | 36750 ft | 495 kts | 150° |
| 2026-05-05 01:39 | 30.32611 | 48.03730 | 36736 ft | 495 kts | 150° |
| 2026-05-05 01:40 | 30.27315 | 48.08753 | 36733 ft | 495 kts | 150° |
| 2026-05-05 01:40 | 30.21984 | 48.13802 | 36770 ft | 496 kts | 151° |
| 2026-05-05 01:41 | 30.16648 | 48.18848 | 36743 ft | 496 kts | 151° |
| 2026-05-05 01:41 | 30.11313 | 48.23887 | 36779 ft | 495 kts | 151° |
| 2026-05-05 01:42 | 30.06010 | 48.28889 | 36770 ft | 496 kts | 151° |
| 2026-05-05 01:42 | 30.00669 | 48.33917 | 36748 ft | 496 kts | 151° |
| 2026-05-05 01:43 | 29.95332 | 48.38935 | 36765 ft | 495 kts | 151° |
| 2026-05-05 01:43 | 29.89987 | 48.43953 | 36782 ft | 496 kts | 151° |
| 2026-05-05 01:44 | 29.84634 | 48.48971 | 36746 ft | 496 kts | 151° |
| 2026-05-05 01:44 | 29.79315 | 48.53952 | 36764 ft | 496 kts | 151° |
| 2026-05-05 01:45 | 29.73958 | 48.58961 | 36776 ft | 496 kts | 151° |
| 2026-05-05 01:45 | 29.68590 | 48.63971 | 36742 ft | 497 kts | 151° |
| 2026-05-05 01:46 | 29.63220 | 48.68978 | 36761 ft | 497 kts | 151° |
| 2026-05-05 01:46 | 29.57882 | 48.73947 | 36781 ft | 497 kts | 151° |
| 2026-05-05 01:47 | 29.52501 | 48.78950 | 36754 ft | 497 kts | 151° |
| 2026-05-05 01:47 | 29.47126 | 48.83942 | 36778 ft | 497 kts | 151° |
| 2026-05-05 01:48 | 29.41749 | 48.88927 | 36779 ft | 497 kts | 151° |
| 2026-05-05 01:48 | 29.36408 | 48.93870 | 36762 ft | 497 kts | 151° |
| 2026-05-05 01:49 | 29.31035 | 48.98839 | 36777 ft | 496 kts | 151° |
| 2026-05-05 01:49 | 29.25714 | 49.03751 | 36781 ft | 496 kts | 151° |
| 2026-05-05 01:50 | 29.20344 | 49.08701 | 36788 ft | 495 kts | 151° |
| 2026-05-05 01:50 | 29.15012 | 49.13609 | 36787 ft | 495 kts | 151° |
| 2026-05-05 01:51 | 29.09638 | 49.18550 | 36784 ft | 495 kts | 151° |
| 2026-05-05 01:51 | 29.04265 | 49.23483 | 36761 ft | 495 kts | 151° |
| 2026-05-05 01:52 | 28.98897 | 49.28404 | 36781 ft | 495 kts | 151° |
| 2026-05-05 01:52 | 28.93522 | 49.33324 | 36788 ft | 496 kts | 152° |
| 2026-05-05 01:53 | 28.88169 | 49.38218 | 36791 ft | 496 kts | 152° |
| 2026-05-05 01:53 | 28.82778 | 49.43141 | 36786 ft | 497 kts | 151° |
| 2026-05-05 01:54 | 28.77377 | 49.48065 | 36791 ft | 497 kts | 151° |
| 2026-05-05 01:54 | 28.71966 | 49.52992 | 36824 ft | 498 kts | 152° |
| 2026-05-05 01:55 | 28.66572 | 49.57897 | 36796 ft | 500 kts | 152° |
| 2026-05-05 01:55 | 28.61131 | 49.62836 | 36794 ft | 501 kts | 152° |
| 2026-05-05 01:56 | 28.55673 | 49.67786 | 36786 ft | 502 kts | 152° |
| 2026-05-05 01:56 | 28.50209 | 49.72736 | 36784 ft | 502 kts | 152° |
| 2026-05-05 01:57 | 28.44778 | 49.77649 | 36789 ft | 502 kts | 152° |
| 2026-05-05 01:57 | 28.39304 | 49.82593 | 36793 ft | 503 kts | 152° |
| 2026-05-05 01:58 | 28.33831 | 49.87529 | 36797 ft | 502 kts | 152° |
| 2026-05-05 01:58 | 28.28357 | 49.92460 | 36791 ft | 502 kts | 152° |
| 2026-05-05 01:59 | 28.22915 | 49.97355 | 36792 ft | 502 kts | 152° |
| 2026-05-05 01:59 | 28.17483 | 50.02235 | 36783 ft | 502 kts | 151° |
| 2026-05-05 02:00 | 28.12011 | 50.07144 | 36792 ft | 502 kts | 151° |
| 2026-05-05 02:00 | 28.06532 | 50.12052 | 36796 ft | 502 kts | 151° |
| 2026-05-05 02:01 | 28.01052 | 50.16955 | 36778 ft | 502 kts | 151° |
| 2026-05-05 02:01 | 27.95650 | 50.21883 | 36790 ft | 507 kts | 146° |
| 2026-05-05 02:02 | 27.90800 | 50.27804 | 36793 ft | 520 kts | 135° |
| 2026-05-05 02:02 | 27.86618 | 50.34529 | 36798 ft | 524 kts | 132° |
| 2026-05-05 02:03 | 27.82492 | 50.41313 | 36793 ft | 523 kts | 132° |
| 2026-05-05 02:03 | 27.78373 | 50.48013 | 36791 ft | 523 kts | 132° |
| 2026-05-05 02:04 | 27.74202 | 50.54733 | 36795 ft | 522 kts | 132° |
| 2026-05-05 02:04 | 27.70025 | 50.61435 | 36783 ft | 522 kts | 132° |
| 2026-05-05 02:05 | 27.65849 | 50.68128 | 36787 ft | 521 kts | 132° |
| 2026-05-05 02:05 | 27.61676 | 50.74811 | 36788 ft | 521 kts | 132° |
| 2026-05-05 02:06 | 27.57527 | 50.81446 | 36788 ft | 521 kts | 132° |
| 2026-05-05 02:06 | 27.53344 | 50.88126 | 36793 ft | 521 kts | 132° |
| 2026-05-05 02:07 | 27.49157 | 50.94802 | 36790 ft | 522 kts | 132° |
| 2026-05-05 02:07 | 27.44999 | 51.01420 | 36789 ft | 522 kts | 132° |
| 2026-05-05 02:08 | 27.40825 | 51.08054 | 36773 ft | 523 kts | 132° |
| 2026-05-05 02:08 | 27.36621 | 51.14728 | 36780 ft | 523 kts | 132° |
| 2026-05-05 02:09 | 27.32418 | 51.21390 | 36781 ft | 522 kts | 132° |
| 2026-05-05 02:09 | 27.28210 | 51.28048 | 36784 ft | 522 kts | 132° |
| 2026-05-05 02:10 | 27.24030 | 51.34653 | 36764 ft | 522 kts | 132° |
| 2026-05-05 02:10 | 27.19821 | 51.41293 | 36786 ft | 521 kts | 132° |
| 2026-05-05 02:11 | 27.15611 | 51.47925 | 36788 ft | 521 kts | 132° |
| 2026-05-05 02:11 | 27.11404 | 51.54543 | 36767 ft | 521 kts | 132° |
| 2026-05-05 02:12 | 27.05113 | 51.64420 | 36772 ft | 520 kts | 132° |
| 2026-05-05 02:13 | 27.00901 | 51.71020 | 36773 ft | 520 kts | 132° |
| 2026-05-05 02:13 | 26.96688 | 51.77613 | 36772 ft | 520 kts | 132° |
| 2026-05-05 02:14 | 26.92470 | 51.84203 | 36755 ft | 520 kts | 132° |
| 2026-05-05 02:14 | 26.88282 | 51.90737 | 36758 ft | 520 kts | 132° |
| 2026-05-05 02:15 | 26.84064 | 51.97309 | 36769 ft | 520 kts | 132° |
| 2026-05-05 02:15 | 26.79881 | 52.03817 | 36763 ft | 520 kts | 132° |
| 2026-05-05 02:16 | 26.75657 | 52.10378 | 36751 ft | 519 kts | 132° |
| 2026-05-05 02:16 | 26.71461 | 52.16887 | 36767 ft | 519 kts | 132° |
| 2026-05-05 02:17 | 26.67236 | 52.23432 | 36752 ft | 519 kts | 132° |
| 2026-05-05 02:17 | 26.63010 | 52.29969 | 36756 ft | 519 kts | 132° |
| 2026-05-05 02:18 | 26.58781 | 52.36501 | 36759 ft | 518 kts | 131° |
| 2026-05-05 02:18 | 26.54583 | 52.42976 | 36755 ft | 518 kts | 132° |
| 2026-05-05 02:19 | 26.50355 | 52.49488 | 36756 ft | 518 kts | 132° |
| 2026-05-05 02:19 | 26.46124 | 52.55997 | 36752 ft | 518 kts | 132° |
| 2026-05-05 02:20 | 26.42102 | 52.62675 | 36751 ft | 522 kts | 124° |
| 2026-05-05 02:20 | 26.39094 | 52.70039 | 36755 ft | 529 kts | 114° |
| 2026-05-05 02:21 | 26.36682 | 52.77804 | 36765 ft | 530 kts | 114° |
| 2026-05-05 02:21 | 26.34156 | 52.85511 | 36757 ft | 530 kts | 115° |
| 2026-05-05 02:22 | 26.31564 | 52.93203 | 36740 ft | 530 kts | 115° |
| 2026-05-05 02:22 | 26.29017 | 53.00767 | 36757 ft | 530 kts | 115° |
| 2026-05-05 02:23 | 26.26445 | 53.08427 | 36279 ft | 527 kts | 114° |
| 2026-05-05 02:23 | 26.25168 | 53.12231 | 35849 ft | 522 kts | 114° |
| 2026-05-05 02:23 | 26.23902 | 53.16000 | 35421 ft | 517 kts | 114° |
| 2026-05-05 02:23 | 26.22644 | 53.19737 | 34964 ft | 513 kts | 114° |
| 2026-05-05 02:24 | 26.21394 | 53.23444 | 34510 ft | 510 kts | 114° |
| 2026-05-05 02:24 | 26.20149 | 53.27132 | 34037 ft | 507 kts | 114° |
| 2026-05-05 02:24 | 26.18910 | 53.30800 | 33549 ft | 505 kts | 114° |
| 2026-05-05 02:24 | 26.17647 | 53.34369 | 33050 ft | 500 kts | 116° |
| 2026-05-05 02:25 | 26.16252 | 53.37892 | 32574 ft | 495 kts | 117° |
| 2026-05-05 02:25 | 26.14829 | 53.41367 | 32129 ft | 491 kts | 118° |
| 2026-05-05 02:25 | 26.13405 | 53.44808 | 31677 ft | 488 kts | 118° |
| 2026-05-05 02:25 | 26.11996 | 53.48221 | 31225 ft | 484 kts | 118° |
| 2026-05-05 02:26 | 26.10601 | 53.51620 | 30789 ft | 481 kts | 118° |
| 2026-05-05 02:26 | 26.09223 | 53.54996 | 30329 ft | 478 kts | 117° |
| 2026-05-05 02:26 | 26.07855 | 53.58352 | 29894 ft | 475 kts | 118° |
| 2026-05-05 02:26 | 26.06512 | 53.61652 | 29381 ft | 473 kts | 117° |
| 2026-05-05 02:27 | 26.05159 | 53.64972 | 28888 ft | 470 kts | 117° |
| 2026-05-05 02:27 | 26.03815 | 53.68266 | 28424 ft | 466 kts | 117° |
| 2026-05-05 02:27 | 26.02480 | 53.71535 | 27972 ft | 462 kts | 117° |
| 2026-05-05 02:27 | 26.01156 | 53.74774 | 27519 ft | 459 kts | 117° |
| 2026-05-05 02:28 | 25.99856 | 53.77996 | 27005 ft | 457 kts | 116° |
| 2026-05-05 02:28 | 25.98578 | 53.81246 | 26250 ft | 461 kts | 116° |
| 2026-05-05 02:28 | 25.97299 | 53.84529 | 25672 ft | 463 kts | 115° |
| 2026-05-05 02:28 | 25.96011 | 53.87833 | 25494 ft | 473 kts | 115° |
| 2026-05-05 02:29 | 25.94680 | 53.91229 | 25302 ft | 484 kts | 115° |
| 2026-05-05 02:29 | 25.93351 | 53.94613 | 24982 ft | 484 kts | 115° |
| 2026-05-05 02:29 | 25.92003 | 53.98037 | 24577 ft | 483 kts | 115° |
| 2026-05-05 02:29 | 25.90641 | 54.01350 | 24052 ft | 481 kts | 117° |
| 2026-05-05 02:30 | 25.89160 | 54.04672 | 23498 ft | 478 kts | 118° |
| 2026-05-05 02:30 | 25.87661 | 54.07946 | 22897 ft | 473 kts | 118° |
| 2026-05-05 02:30 | 25.86185 | 54.11187 | 22332 ft | 468 kts | 118° |
| 2026-05-05 02:30 | 25.84742 | 54.14404 | 21757 ft | 463 kts | 117° |
| 2026-05-05 02:31 | 25.83323 | 54.17592 | 21216 ft | 458 kts | 117° |
| 2026-05-05 02:31 | 25.81948 | 54.20767 | 20624 ft | 455 kts | 115° |
| 2026-05-05 02:31 | 25.80837 | 54.23987 | 20107 ft | 451 kts | 110° |
| 2026-05-05 02:31 | 25.79842 | 54.27263 | 19631 ft | 445 kts | 109° |
| 2026-05-05 02:32 | 25.78868 | 54.30505 | 19168 ft | 441 kts | 109° |
| 2026-05-05 02:32 | 25.77886 | 54.33705 | 18711 ft | 436 kts | 111° |
| 2026-05-05 02:32 | 25.76667 | 54.36755 | 18268 ft | 431 kts | 118° |
| 2026-05-05 02:32 | 25.75142 | 54.39574 | 17967 ft | 421 kts | 125° |
| 2026-05-05 02:33 | 25.73537 | 54.42261 | 17690 ft | 417 kts | 125° |
| 2026-05-05 02:33 | 25.71926 | 54.44951 | 17422 ft | 421 kts | 124° |
| 2026-05-05 02:33 | 25.70302 | 54.47672 | 17160 ft | 424 kts | 124° |
| 2026-05-05 02:33 | 25.68700 | 54.50365 | 16892 ft | 424 kts | 124° |
| 2026-05-05 02:34 | 25.67085 | 54.53091 | 16618 ft | 422 kts | 124° |
| 2026-05-05 02:34 | 25.65478 | 54.55810 | 16349 ft | 421 kts | 124° |
| 2026-05-05 02:34 | 25.63878 | 54.58520 | 16111 ft | 419 kts | 124° |
| 2026-05-05 02:34 | 25.62290 | 54.61211 | 15891 ft | 416 kts | 123° |
| 2026-05-05 02:35 | 25.60711 | 54.63885 | 15671 ft | 413 kts | 123° |
| 2026-05-05 02:35 | 25.59141 | 54.66541 | 15459 ft | 411 kts | 123° |
| 2026-05-05 02:35 | 25.57580 | 54.69183 | 15247 ft | 409 kts | 123° |
| 2026-05-05 02:35 | 25.56026 | 54.71810 | 15032 ft | 407 kts | 123° |
| 2026-05-05 02:36 | 25.54498 | 54.74391 | 14822 ft | 405 kts | 123° |
| 2026-05-05 02:36 | 25.52956 | 54.76995 | 14618 ft | 404 kts | 123° |
| 2026-05-05 02:36 | 25.51417 | 54.79590 | 14413 ft | 403 kts | 123° |
| 2026-05-05 02:36 | 25.49883 | 54.82177 | 14213 ft | 401 kts | 123° |
| 2026-05-05 02:37 | 25.48353 | 54.84756 | 13997 ft | 400 kts | 123° |
| 2026-05-05 02:37 | 25.46827 | 54.87327 | 13807 ft | 399 kts | 123° |
| 2026-05-05 02:37 | 25.45302 | 54.89895 | 13606 ft | 398 kts | 123° |
| 2026-05-05 02:37 | 25.43782 | 54.92453 | 13372 ft | 397 kts | 123° |
| 2026-05-05 02:38 | 25.42267 | 54.95001 | 13161 ft | 396 kts | 122° |
| 2026-05-05 02:38 | 25.40775 | 54.97508 | 12937 ft | 395 kts | 122° |
| 2026-05-05 02:38 | 25.39273 | 55.00032 | 12709 ft | 394 kts | 122° |
| 2026-05-05 02:38 | 25.37790 | 55.02524 | 12498 ft | 392 kts | 122° |
| 2026-05-05 02:39 | 25.36292 | 55.05037 | 12278 ft | 391 kts | 122° |
| 2026-05-05 02:39 | 25.34799 | 55.07541 | 12049 ft | 389 kts | 122° |
| 2026-05-05 02:39 | 25.33311 | 55.10036 | 11817 ft | 387 kts | 122° |
| 2026-05-05 02:39 | 25.31859 | 55.12468 | 11408 ft | 369 kts | 122° |
| 2026-05-05 02:40 | 25.30484 | 55.14768 | 11015 ft | 349 kts | 122° |
| 2026-05-05 02:40 | 25.29182 | 55.16944 | 10624 ft | 331 kts | 122° |
| 2026-05-05 02:40 | 25.27932 | 55.19035 | 10366 ft | 322 kts | 121° |
| 2026-05-05 02:40 | 25.26734 | 55.21040 | 10235 ft | 313 kts | 121° |
| 2026-05-05 02:41 | 25.25550 | 55.23020 | 10087 ft | 304 kts | 121° |
| 2026-05-05 02:41 | 25.24400 | 55.24943 | 9938 ft | 297 kts | 121° |
| 2026-05-05 02:41 | 25.23261 | 55.26848 | 9614 ft | 297 kts | 121° |
| 2026-05-05 02:41 | 25.22124 | 55.28748 | 9271 ft | 296 kts | 121° |
| 2026-05-05 02:42 | 25.20989 | 55.30645 | 8933 ft | 296 kts | 121° |
| 2026-05-05 02:42 | 25.19857 | 55.32535 | 8596 ft | 295 kts | 121° |
| 2026-05-05 02:42 | 25.18726 | 55.34422 | 8264 ft | 294 kts | 121° |
| 2026-05-05 02:42 | 25.17611 | 55.36281 | 7940 ft | 294 kts | 121° |
| 2026-05-05 02:43 | 25.16494 | 55.38143 | 7744 ft | 287 kts | 121° |
| 2026-05-05 02:43 | 25.15390 | 55.39984 | 7344 ft | 290 kts | 121° |
| 2026-05-05 02:43 | 25.14274 | 55.41845 | 6957 ft | 291 kts | 121° |
| 2026-05-05 02:43 | 25.13155 | 55.43708 | 6623 ft | 291 kts | 121° |
| 2026-05-05 02:44 | 25.12039 | 55.45563 | 6290 ft | 290 kts | 121° |
| 2026-05-05 02:44 | 25.10928 | 55.47421 | 5949 ft | 289 kts | 120° |
| 2026-05-05 02:44 | 25.09869 | 55.49304 | 5622 ft | 287 kts | 119° |
| 2026-05-05 02:44 | 25.08853 | 55.51135 | 5434 ft | 269 kts | 119° |
| 2026-05-05 02:45 | 25.08086 | 55.52866 | 5275 ft | 242 kts | 99° |
| 2026-05-05 02:45 | 25.08051 | 55.54646 | 5215 ft | 224 kts | 78° |
| 2026-05-05 02:45 | 25.08380 | 55.56273 | 5143 ft | 215 kts | 73° |
| 2026-05-05 02:45 | 25.08798 | 55.57826 | 4863 ft | 206 kts | 63° |
| 2026-05-05 02:46 | 25.09689 | 55.58967 | 4612 ft | 195 kts | 30° |
| 2026-05-05 02:46 | 25.10979 | 55.59331 | 4362 ft | 195 kts | 353° |
| 2026-05-05 02:46 | 25.12165 | 55.58712 | 4132 ft | 188 kts | 318° |
| 2026-05-05 02:46 | 25.13040 | 55.57685 | 3862 ft | 182 kts | 312° |
| 2026-05-05 02:47 | 25.13830 | 55.56625 | 3460 ft | 179 kts | 310° |
| 2026-05-05 02:47 | 25.14575 | 55.55578 | 3218 ft | 169 kts | 307° |
| 2026-05-05 02:47 | 25.15221 | 55.54548 | 3001 ft | 157 kts | 303° |
| 2026-05-05 02:47 | 25.15804 | 55.53542 | 2808 ft | 156 kts | 302° |
| 2026-05-05 02:48 | 25.16374 | 55.52531 | 2617 ft | 154 kts | 302° |
| 2026-05-05 02:48 | 25.16936 | 55.51522 | 2413 ft | 154 kts | 302° |
| 2026-05-05 02:48 | 25.17495 | 55.50514 | 2227 ft | 154 kts | 302° |
| 2026-05-05 02:48 | 25.18052 | 55.49509 | 2033 ft | 153 kts | 302° |
| 2026-05-05 02:49 | 25.18608 | 55.48505 | 1824 ft | 154 kts | 302° |
| 2026-05-05 02:49 | 25.19159 | 55.47509 | 1650 ft | 154 kts | 302° |
| 2026-05-05 02:49 | 25.19719 | 55.46496 | 1442 ft | 154 kts | 302° |
| 2026-05-05 02:49 | 25.20274 | 55.45493 | 1235 ft | 153 kts | 302° |
| 2026-05-05 02:50 | 25.20831 | 55.44485 | 1047 ft | 153 kts | 301° |
| 2026-05-05 02:50 | 25.21372 | 55.43476 | 892 ft | 154 kts | 301° |
| 2026-05-05 02:50 | 25.21924 | 55.42448 | 658 ft | 155 kts | 301° |
| 2026-05-05 02:50 | 25.22489 | 55.41440 | 464 ft | 156 kts | 302° |
| 2026-05-05 02:51 | 25.23057 | 55.40413 | 269 ft | 157 kts | 302° |
| 2026-05-05 02:51 | 25.23632 | 55.39400 | 55 ft | 156 kts | 302° |
| 2026-05-05 02:51 | 25.24174 | 55.38442 | 27 ft | 132 kts | 303° |
| 2026-05-05 02:51 | 25.24548 | 55.37753 | 27 ft | 78 kts | 303° |
| 2026-05-05 02:52 | 25.24703 | 55.37482 | 27 ft | 26 kts | 300° |
| 2026-05-05 02:52 | 25.24771 | 55.37309 | 27 ft | 23 kts | 279° |
| 2026-05-05 02:52 | 25.24784 | 55.37173 | 27 ft | 8 kts | 272° |
| 2026-05-05 02:52 | 25.24774 | 55.37086 | 27 ft | 16 kts | 259° |
| 2026-05-05 02:53 | 25.24719 | 55.37029 | 27 ft | 12 kts | 163° |
| 2026-05-05 02:53 | 25.24649 | 55.37065 | 27 ft | 12 kts | 155° |
| 2026-05-05 02:53 | 25.24592 | 55.37137 | 27 ft | 10 kts | 123° |
| 2026-05-05 02:53 | 25.24571 | 55.37173 | 27 ft | 5 kts | 129° |
| 2026-05-05 02:54 | 25.24539 | 55.37177 | 27 ft | 5 kts | 192° |
| 2026-05-05 02:54 | 25.24504 | 55.37161 | 27 ft | 6 kts | 208° |
| 2026-05-05 02:54 | 25.24485 | 55.37149 | 27 ft | 0 kts | 210° |
| 2026-05-05 02:54 | 25.24481 | 55.37147 | 27 ft | 1 kts | 209° |
| 2026-05-05 02:55 | 25.24474 | 55.37142 | 27 ft | 2 kts | 210° |
| 2026-05-05 02:55 | 25.24473 | 55.37141 | 27 ft | 0 kts | 210° |